createdAt,value
2023-01-28T00:00:02.819Z,1.5
2023-01-28T00:01:03.684Z,1.5
2023-01-28T00:02:04.581Z,1.5
2023-01-28T00:03:05.767Z,1.5
2023-01-28T00:04:06.661Z,1.5
2023-01-28T00:05:08.076Z,1.5
2023-01-28T00:06:08.891Z,1.5
2023-01-28T00:07:09.790Z,1.5
2023-01-28T00:08:10.707Z,1.5
2023-01-28T00:09:12.131Z,1.4
2023-01-28T00:10:13.056Z,1.4
2023-01-28T00:11:13.999Z,1.4
2023-01-28T00:12:14.981Z,1.4
2023-01-28T00:13:16.104Z,1.4
2023-01-28T00:14:17.084Z,1.4
2023-01-28T00:15:18.740Z,1.4
2023-01-28T00:16:19.943Z,1.4
2023-01-28T00:17:21.292Z,1.4
2023-01-28T00:18:22.428Z,1.4
2023-01-28T00:19:23.860Z,1.4
2023-01-28T00:20:25.271Z,1.4
2023-01-28T00:21:26.397Z,1.4
2023-01-28T00:22:27.529Z,1.5
2023-01-28T00:23:28.671Z,1.5
2023-01-28T00:24:30.116Z,1.5
2023-01-28T00:25:31.503Z,1.5
2023-01-28T00:26:32.640Z,1.4
2023-01-28T00:27:34.087Z,1.4
2023-01-28T00:28:35.217Z,1.5
2023-01-28T00:29:36.388Z,1.5
2023-01-28T00:30:37.783Z,1.5
2023-01-28T00:31:39.256Z,1.5
2023-01-28T00:32:40.930Z,1.5
2023-01-28T00:33:45.370Z,1.5
2023-01-28T00:34:46.787Z,1.5
2023-01-28T00:35:47.959Z,1.5
2023-01-28T00:36:49.067Z,1.5
2023-01-28T00:37:50.215Z,1.5
2023-01-28T00:38:51.623Z,1.5
2023-01-28T00:39:53.048Z,1.5
2023-01-28T00:40:53.965Z,1.5
2023-01-28T00:41:55.113Z,1.5
2023-01-28T00:42:56.559Z,1.5
2023-01-28T00:43:57.956Z,1.5
2023-01-28T00:44:59.383Z,1.5
2023-01-28T00:46:00.546Z,1.5
2023-01-28T00:47:01.938Z,1.5
2023-01-28T00:48:03.358Z,1.5
2023-01-28T00:49:03.974Z,1.5
2023-01-28T00:50:05.150Z,1.5
2023-01-28T00:51:06.128Z,1.5
2023-01-28T00:52:06.965Z,1.5
2023-01-28T00:53:08.102Z,1.5
2023-01-28T00:54:09.286Z,1.5
2023-01-28T00:55:10.419Z,1.5
2023-01-28T00:56:11.874Z,1.5
2023-01-28T00:57:12.481Z,1.5
2023-01-28T00:58:13.709Z,1.4
2023-01-28T00:59:14.870Z,1.4
2023-01-28T01:00:16.010Z,1.4
2023-01-28T01:01:16.919Z,1.4
2023-01-28T01:02:18.467Z,1.4
2023-01-28T01:03:19.851Z,1.4
2023-01-28T01:04:20.712Z,1.4
2023-01-28T01:05:21.618Z,1.4
2023-01-28T01:06:23.035Z,1.4
2023-01-28T01:07:24.448Z,1.4
2023-01-28T01:08:25.346Z,1.4
2023-01-28T01:09:26.527Z,1.4
2023-01-28T01:10:27.554Z,1.4
2023-01-28T01:11:28.706Z,1.4
2023-01-28T01:12:29.580Z,1.4
2023-01-28T01:13:30.504Z,1.5
2023-01-28T01:14:31.659Z,1.5
2023-01-28T01:15:32.650Z,1.4
2023-01-28T01:16:33.713Z,1.5
2023-01-28T01:17:35.095Z,1.5
2023-01-28T01:18:35.952Z,1.5
2023-01-28T01:19:36.807Z,1.5
2023-01-28T01:20:37.945Z,1.5
2023-01-28T01:21:39.382Z,1.5
2023-01-28T01:22:40.499Z,1.5
2023-01-28T01:23:41.354Z,1.5
2023-01-28T01:24:42.490Z,1.5
2023-01-28T01:25:43.350Z,1.5
2023-01-28T01:26:44.529Z,1.5
2023-01-28T01:27:45.384Z,1.5
2023-01-28T01:28:46.270Z,1.5
2023-01-28T01:29:46.883Z,1.5
2023-01-28T01:30:48.072Z,1.5
2023-01-28T01:31:49.432Z,1.5
2023-01-28T01:32:50.791Z,1.5
2023-01-28T01:33:51.930Z,1.5
2023-01-28T01:34:53.067Z,1.5
2023-01-28T01:35:53.928Z,1.5
2023-01-28T01:36:55.085Z,1.5
2023-01-28T01:37:55.955Z,1.5
2023-01-28T01:38:56.862Z,1.5
2023-01-28T01:39:57.990Z,1.5
2023-01-28T01:40:58.850Z,1.5
2023-01-28T01:41:59.721Z,1.5
2023-01-28T01:43:00.606Z,1.5
2023-01-28T01:44:01.587Z,1.5
2023-01-28T01:45:02.788Z,1.5
2023-01-28T01:46:03.744Z,1.5
2023-01-28T01:47:04.721Z,1.5
2023-01-28T01:48:05.323Z,1.5
2023-01-28T01:49:06.734Z,1.5
2023-01-28T01:50:07.608Z,1.5
2023-01-28T01:51:08.499Z,1.5
2023-01-28T01:52:09.815Z,1.5
2023-01-28T01:53:10.697Z,1.4
2023-01-28T01:54:11.878Z,1.4
2023-01-28T01:55:13.295Z,1.4
2023-01-28T01:56:15.548Z,1.4
2023-01-28T01:57:16.460Z,1.4
2023-01-28T01:58:17.356Z,1.4
2023-01-28T01:59:18.279Z,1.4
2023-01-28T02:00:18.877Z,1.4
2023-01-28T02:01:20.291Z,1.4
2023-01-28T02:02:21.548Z,1.4
2023-01-28T02:03:22.470Z,1.4
2023-01-28T02:04:23.450Z,1.4
2023-01-28T02:05:24.082Z,1.4
2023-01-28T02:06:25.277Z,1.4
2023-01-28T02:07:26.627Z,1.4
2023-01-28T02:08:27.411Z,1.4
2023-01-28T02:09:28.271Z,1.4
2023-01-28T02:10:28.881Z,1.4
2023-01-28T02:11:29.790Z,1.4
2023-01-28T02:12:30.441Z,1.4
2023-01-28T02:13:31.056Z,1.4
2023-01-28T02:14:32.262Z,1.4
2023-01-28T02:15:33.414Z,1.4
2023-01-28T02:16:34.364Z,1.4
2023-01-28T02:17:35.577Z,1.4
2023-01-28T02:18:36.698Z,1.4
2023-01-28T02:19:37.631Z,1.4
2023-01-28T02:20:38.533Z,1.4
2023-01-28T02:21:39.561Z,1.4
2023-01-28T02:22:40.197Z,1.4
2023-01-28T02:23:41.318Z,1.4
2023-01-28T02:24:41.941Z,1.4
2023-01-28T02:25:42.798Z,1.4
2023-01-28T02:26:43.945Z,1.4
2023-01-28T02:27:45.126Z,1.4
2023-01-28T02:28:46.013Z,1.4
2023-01-28T02:29:47.475Z,1.3
2023-01-28T02:30:48.628Z,1.3
2023-01-28T02:31:50.249Z,1.3
2023-01-28T02:32:51.748Z,1.3
2023-01-28T02:33:52.885Z,1.3
2023-01-28T02:34:54.021Z,1.3
2023-01-28T02:35:55.163Z,1.3
2023-01-28T02:36:56.378Z,1.3
2023-01-28T02:37:57.500Z,1.4
2023-01-28T02:38:58.634Z,1.3
2023-01-28T02:39:59.531Z,1.4
2023-01-28T02:41:00.721Z,1.4
2023-01-28T02:42:01.342Z,1.4
2023-01-28T02:43:02.747Z,1.4
2023-01-28T02:44:03.888Z,1.4
2023-01-28T02:45:05.123Z,1.4
2023-01-28T02:46:06.027Z,1.4
2023-01-28T02:47:07.719Z,1.4
2023-01-28T02:48:08.612Z,1.3
2023-01-28T02:49:09.514Z,1.3
2023-01-28T02:50:10.637Z,1.3
2023-01-28T02:51:11.542Z,1.3
2023-01-28T02:52:12.690Z,1.3
2023-01-28T02:53:13.820Z,1.3
2023-01-28T02:54:14.441Z,1.3
2023-01-28T02:55:15.493Z,1.3
2023-01-28T02:56:17.406Z,1.4
2023-01-28T02:57:18.555Z,1.3
2023-01-28T02:58:19.687Z,1.3
2023-01-28T02:59:20.544Z,1.3
2023-01-28T03:00:21.468Z,1.3
2023-01-28T03:01:22.073Z,1.3
2023-01-28T03:02:23.130Z,1.3
2023-01-28T03:03:23.831Z,1.3
2023-01-28T03:04:25.249Z,1.3
2023-01-28T03:05:26.105Z,1.3
2023-01-28T03:06:27.239Z,1.3
2023-01-28T03:07:28.157Z,1.3
2023-01-28T03:08:29.285Z,1.3
2023-01-28T03:09:30.193Z,1.3
2023-01-28T03:10:31.339Z,1.3
2023-01-28T03:11:32.470Z,1.3
2023-01-28T03:12:33.123Z,1.3
2023-01-28T03:13:34.515Z,1.3
2023-01-28T03:14:35.410Z,1.3
2023-01-28T03:15:36.642Z,1.3
2023-01-28T03:16:38.014Z,1.3
2023-01-28T03:17:38.945Z,1.3
2023-01-28T03:18:40.061Z,1.3
2023-01-28T03:19:41.484Z,1.3
2023-01-28T03:20:42.375Z,1.3
2023-01-28T03:21:43.793Z,1.3
2023-01-28T03:22:45.237Z,1.3
2023-01-28T03:23:46.625Z,1.3
2023-01-28T03:24:47.483Z,1.3
2023-01-28T03:25:48.613Z,1.3
2023-01-28T03:26:49.235Z,1.3
2023-01-28T03:27:50.472Z,1.3
2023-01-28T03:28:51.105Z,1.3
2023-01-28T03:29:52.240Z,1.3
2023-01-28T03:30:53.198Z,1.3
2023-01-28T03:31:54.467Z,1.3
2023-01-28T03:32:55.720Z,1.3
2023-01-28T03:33:56.838Z,1.3
2023-01-28T03:34:57.491Z,1.3
2023-01-28T03:35:58.909Z,1.3
2023-01-28T03:36:59.543Z,1.3
2023-01-28T03:38:00.684Z,1.3
2023-01-28T03:39:01.807Z,1.3
2023-01-28T03:40:02.714Z,1.3
2023-01-28T03:41:03.633Z,1.3
2023-01-28T03:42:04.553Z,1.3
2023-01-28T03:43:05.728Z,1.3
2023-01-28T03:44:07.102Z,1.3
2023-01-28T03:45:08.248Z,1.3
2023-01-28T03:46:09.417Z,1.3
2023-01-28T03:47:10.794Z,1.3
2023-01-28T03:48:11.469Z,1.3
2023-01-28T03:49:12.629Z,1.3
2023-01-28T03:50:13.805Z,1.3
2023-01-28T03:51:14.931Z,1.3
2023-01-28T03:52:16.137Z,1.3
2023-01-28T03:53:17.201Z,1.3
2023-01-28T03:54:18.132Z,1.3
2023-01-28T03:55:18.722Z,1.3
2023-01-28T03:56:19.383Z,1.3
2023-01-28T03:57:20.220Z,1.3
2023-01-28T03:58:21.669Z,1.3
2023-01-28T03:59:22.975Z,1.3
2023-01-28T04:00:23.875Z,1.3
2023-01-28T04:01:24.604Z,1.3
2023-01-28T04:02:26.059Z,1.3
2023-01-28T04:03:27.416Z,1.3
2023-01-28T04:04:28.822Z,1.3
2023-01-28T04:05:30.238Z,1.3
2023-01-28T04:06:31.149Z,1.3
2023-01-28T04:07:31.777Z,1.3
2023-01-28T04:08:32.403Z,1.3
2023-01-28T04:09:33.567Z,1.3
2023-01-28T04:10:34.468Z,1.3
2023-01-28T04:11:35.888Z,1.3
2023-01-28T04:12:36.743Z,1.3
2023-01-28T04:13:37.895Z,1.3
2023-01-28T04:14:39.063Z,1.3
2023-01-28T04:15:39.692Z,1.3
2023-01-28T04:16:40.846Z,1.3
2023-01-28T04:17:42.239Z,1.3
2023-01-28T04:18:42.896Z,1.3
2023-01-28T04:19:44.295Z,1.3
2023-01-28T04:20:45.436Z,1.3
2023-01-28T04:21:46.328Z,1.3
2023-01-28T04:22:47.515Z,1.3
2023-01-28T04:23:48.715Z,1.3
2023-01-28T04:24:49.563Z,1.3
2023-01-28T04:25:50.892Z,1.3
2023-01-28T04:26:52.020Z,1.3
2023-01-28T04:27:54.798Z,1.3
2023-01-28T04:28:55.668Z,1.3
2023-01-28T04:29:56.563Z,1.2
2023-01-28T04:30:58.036Z,1.2
2023-01-28T04:31:59.681Z,1.2
2023-01-28T04:33:00.289Z,1.2
2023-01-28T04:34:01.234Z,1.2
2023-01-28T04:35:02.451Z,1.2
2023-01-28T04:36:03.293Z,1.2
2023-01-28T04:37:04.707Z,1.2
2023-01-28T04:38:05.346Z,1.2
2023-01-28T04:39:05.975Z,1.2
2023-01-28T04:40:06.813Z,1.2
2023-01-28T04:41:07.949Z,1.2
2023-01-28T04:42:08.563Z,1.2
2023-01-28T04:43:09.190Z,1.2
2023-01-28T04:44:10.463Z,1.2
2023-01-28T04:45:11.291Z,1.2
2023-01-28T04:46:12.462Z,1.2
2023-01-28T04:47:13.309Z,1.2
2023-01-28T04:48:14.168Z,1.2
2023-01-28T04:49:15.369Z,1.3
2023-01-28T04:50:16.502Z,1.2
2023-01-28T04:51:17.622Z,1.2
2023-01-28T04:52:18.486Z,1.2
2023-01-28T04:53:19.638Z,1.2
2023-01-28T04:54:20.806Z,1.2
2023-01-28T04:55:21.684Z,1.2
2023-01-28T04:56:22.814Z,1.2
2023-01-28T04:57:23.960Z,1.2
2023-01-28T04:58:24.568Z,1.2
2023-01-28T04:59:25.766Z,1.2
2023-01-28T05:00:26.654Z,1.2
2023-01-28T05:01:27.524Z,1.2
2023-01-28T05:02:28.410Z,1.2
2023-01-28T05:03:29.285Z,1.2
2023-01-28T05:04:30.490Z,1.2
2023-01-28T05:05:31.109Z,1.1
2023-01-28T05:06:32.268Z,1.2
2023-01-28T05:07:33.103Z,1.2
2023-01-28T05:08:34.241Z,1.1
2023-01-28T05:09:35.154Z,1.1
2023-01-28T05:10:35.759Z,1.1
2023-01-28T05:11:38.969Z,1.2
2023-01-28T05:12:40.255Z,1.1
2023-01-28T05:13:41.141Z,1.2
2023-01-28T05:14:42.061Z,1.2
2023-01-28T05:15:42.956Z,1.1
2023-01-28T05:16:43.559Z,1.1
2023-01-28T05:17:44.569Z,1.1
2023-01-28T05:18:45.284Z,1.1
2023-01-28T05:19:46.426Z,1.1
2023-01-28T05:20:47.313Z,1.1
2023-01-28T05:21:47.949Z,1.1
2023-01-28T05:22:48.585Z,1.1
2023-01-28T05:23:49.471Z,1.1
2023-01-28T05:24:50.611Z,1.1
2023-01-28T05:25:51.783Z,1.1
2023-01-28T05:26:52.637Z,1.1
2023-01-28T05:27:53.262Z,1.1
2023-01-28T05:28:53.883Z,1.1
2023-01-28T05:29:54.838Z,1.1
2023-01-28T05:30:55.817Z,1.1
2023-01-28T05:31:56.845Z,1.1
2023-01-28T05:32:57.510Z,1.1
2023-01-28T05:33:58.905Z,1.1
2023-01-28T05:34:59.552Z,1.2
2023-01-28T05:36:00.968Z,1.1
2023-01-28T05:37:02.095Z,1.2
2023-01-28T05:38:03.233Z,1.1
2023-01-28T05:39:04.642Z,1.1
2023-01-28T05:40:05.282Z,1.1
2023-01-28T05:41:06.475Z,1.1
2023-01-28T05:42:07.126Z,1.1
2023-01-28T05:43:08.290Z,1.1
2023-01-28T05:44:09.255Z,1.1
2023-01-28T05:45:10.442Z,1.1
2023-01-28T05:46:11.346Z,1.1
2023-01-28T05:47:12.519Z,1.1
2023-01-28T05:48:13.428Z,1.1
2023-01-28T05:49:14.286Z,1.1
2023-01-28T05:50:15.672Z,1.1
2023-01-28T05:51:17.740Z,1.1
2023-01-28T05:52:18.862Z,1.1
2023-01-28T05:53:19.826Z,1.1
2023-01-28T05:54:20.678Z,1.1
2023-01-28T05:55:21.814Z,1.1
2023-01-28T05:56:22.431Z,1.1
2023-01-28T05:57:23.845Z,1.1
2023-01-28T05:58:24.754Z,1.1
2023-01-28T05:59:25.617Z,1.1
2023-01-28T06:00:26.244Z,1.1
2023-01-28T06:01:26.860Z,1.1
2023-01-28T06:02:28.299Z,1.1
2023-01-28T06:03:29.725Z,1.1
2023-01-28T06:04:30.831Z,1.1
2023-01-28T06:05:31.996Z,1
2023-01-28T06:06:33.299Z,1
2023-01-28T06:07:33.898Z,1.1
2023-01-28T06:08:35.072Z,1.1
2023-01-28T06:09:36.248Z,1
2023-01-28T06:10:37.392Z,1
2023-01-28T06:11:38.796Z,1
2023-01-28T06:12:40.235Z,1
2023-01-28T06:13:41.407Z,1
2023-01-28T06:14:42.082Z,1
2023-01-28T06:15:43.557Z,1
2023-01-28T06:16:45.036Z,1
2023-01-28T06:17:45.899Z,1
2023-01-28T06:18:47.058Z,1
2023-01-28T06:19:47.937Z,1
2023-01-28T06:20:49.150Z,1
2023-01-28T06:21:49.745Z,1
2023-01-28T06:22:50.368Z,1
2023-01-28T06:23:51.358Z,1
2023-01-28T06:24:52.817Z,1
2023-01-28T06:25:53.962Z,1
2023-01-28T06:26:55.089Z,1
2023-01-28T06:27:55.715Z,1
2023-01-28T06:28:56.845Z,1
2023-01-28T06:29:57.465Z,1
2023-01-28T06:30:58.402Z,1
2023-01-28T06:31:59.825Z,1
2023-01-28T06:33:00.821Z,1
2023-01-28T06:34:02.384Z,1
2023-01-28T06:35:03.270Z,1
2023-01-28T06:36:04.515Z,1
2023-01-28T06:37:05.416Z,0.9
2023-01-28T06:38:06.312Z,1
2023-01-28T06:39:07.729Z,1
2023-01-28T06:40:08.350Z,0.9
2023-01-28T06:41:09.541Z,0.9
2023-01-28T06:42:10.393Z,0.9
2023-01-28T06:43:11.807Z,0.9
2023-01-28T06:44:12.717Z,0.9
2023-01-28T06:45:13.585Z,0.9
2023-01-28T06:46:14.751Z,0.9
2023-01-28T06:47:15.904Z,0.9
2023-01-28T06:48:17.504Z,0.9
2023-01-28T06:49:18.429Z,0.9
2023-01-28T06:50:19.302Z,0.9
2023-01-28T06:51:20.232Z,0.9
2023-01-28T06:52:21.121Z,0.9
2023-01-28T06:53:22.259Z,0.9
2023-01-28T06:54:23.163Z,0.9
2023-01-28T06:55:24.300Z,0.9
2023-01-28T06:56:25.214Z,0.9
2023-01-28T06:57:26.377Z,0.9
2023-01-28T06:58:27.514Z,0.9
2023-01-28T06:59:28.930Z,0.9
2023-01-28T07:00:29.790Z,0.9
2023-01-28T07:01:31.229Z,0.9
2023-01-28T07:02:32.340Z,0.9
2023-01-28T07:03:33.802Z,0.9
2023-01-28T07:04:34.718Z,0.9
2023-01-28T07:05:35.895Z,0.9
2023-01-28T07:06:37.299Z,0.9
2023-01-28T07:07:40.812Z,0.9
2023-01-28T07:08:42.956Z,0.9
2023-01-28T07:09:44.372Z,0.9
2023-01-28T07:10:45.787Z,0.9
2023-01-28T07:11:46.975Z,0.9
2023-01-28T07:12:47.865Z,0.9
2023-01-28T07:13:49.281Z,0.9
2023-01-28T07:14:50.176Z,0.8
2023-01-28T07:15:51.599Z,0.8
2023-01-28T07:16:52.835Z,0.8
2023-01-28T07:17:54.027Z,0.8
2023-01-28T07:18:55.450Z,0.8
2023-01-28T07:19:56.878Z,0.8
2023-01-28T07:20:57.759Z,0.8
2023-01-28T07:21:58.697Z,0.9
2023-01-28T07:22:59.311Z,0.9
2023-01-28T07:24:00.497Z,0.9
2023-01-28T07:25:01.757Z,0.9
2023-01-28T07:26:03.165Z,0.9
2023-01-28T07:27:04.594Z,0.9
2023-01-28T07:28:05.475Z,0.9
2023-01-28T07:29:06.896Z,0.9
2023-01-28T07:30:08.021Z,0.9
2023-01-28T07:31:09.265Z,0.9
2023-01-28T07:32:10.822Z,1
2023-01-28T07:33:12.411Z,1
2023-01-28T07:34:13.819Z,1
2023-01-28T07:35:14.982Z,1
2023-01-28T07:36:15.863Z,1
2023-01-28T07:37:16.801Z,1
2023-01-28T07:38:18.206Z,1
2023-01-28T07:39:19.620Z,1
2023-01-28T07:40:21.037Z,1
2023-01-28T07:41:22.172Z,1
2023-01-28T07:42:23.590Z,1.1
2023-01-28T07:43:25.004Z,1.1
2023-01-28T07:44:26.143Z,1.1
2023-01-28T07:45:27.560Z,1.1
2023-01-28T07:46:28.982Z,1.1
2023-01-28T07:47:29.984Z,1.1
2023-01-28T07:48:31.549Z,1.1
2023-01-28T07:49:32.685Z,1.1
2023-01-28T07:50:34.130Z,1.1
2023-01-28T07:51:35.244Z,1.2
2023-01-28T07:52:36.651Z,1.2
2023-01-28T07:53:37.831Z,1.2
2023-01-28T07:54:38.690Z,1.2
2023-01-28T07:55:40.109Z,1.2
2023-01-28T07:56:41.252Z,1.2
2023-01-28T07:57:42.663Z,1.3
2023-01-28T07:58:44.078Z,1.3
2023-01-28T07:59:45.211Z,1.3
2023-01-28T08:00:46.629Z,1.3
2023-01-28T08:01:47.540Z,1.3
2023-01-28T08:02:48.948Z,1.3
2023-01-28T08:03:50.365Z,1.3
2023-01-28T08:04:51.860Z,1.3
2023-01-28T08:05:53.706Z,1.3
2023-01-28T08:06:54.875Z,1.3
2023-01-28T08:07:56.279Z,1.2
2023-01-28T08:08:57.694Z,1.3
2023-01-28T08:09:58.872Z,1.3
2023-01-28T08:11:00.008Z,1.3
2023-01-28T08:12:01.433Z,1.3
2023-01-28T08:13:02.841Z,1.3
2023-01-28T08:14:04.257Z,1.3
2023-01-28T08:15:05.395Z,1.3
2023-01-28T08:16:06.857Z,1.3
2023-01-28T08:17:08.048Z,1.3
2023-01-28T08:18:08.935Z,1.3
2023-01-28T08:19:10.348Z,1.3
2023-01-28T08:20:11.548Z,1.3
2023-01-28T08:21:13.079Z,1.3
2023-01-28T08:22:14.491Z,1.3
2023-01-28T08:23:15.684Z,1.3
2023-01-28T08:24:17.142Z,1.3
2023-01-28T08:25:18.603Z,1.3
2023-01-28T08:26:19.790Z,1.3
2023-01-28T08:27:20.927Z,1.3
2023-01-28T08:28:22.062Z,1.3
2023-01-28T08:29:23.253Z,1.3
2023-01-28T08:30:24.198Z,1.3
2023-01-28T08:31:25.782Z,1.3
2023-01-28T08:32:27.262Z,1.3
2023-01-28T08:33:28.673Z,1.3
2023-01-28T08:34:29.808Z,1.3
2023-01-28T08:35:30.985Z,1.3
2023-01-28T08:36:32.191Z,1.3
2023-01-28T08:37:33.323Z,1.3
2023-01-28T08:38:34.513Z,1.4
2023-01-28T08:39:35.424Z,1.4
2023-01-28T08:40:36.283Z,1.4
2023-01-28T08:41:37.191Z,1.4
2023-01-28T08:42:38.096Z,1.5
2023-01-28T08:43:38.718Z,1.5
2023-01-28T08:44:39.423Z,1.5
2023-01-28T08:45:40.278Z,1.5
2023-01-28T08:46:41.516Z,1.5
2023-01-28T08:47:42.634Z,1.6
2023-01-28T08:48:43.764Z,1.6
2023-01-28T08:49:44.385Z,1.6
2023-01-28T08:50:45.292Z,1.6
2023-01-28T08:51:46.221Z,1.6
2023-01-28T08:52:48.688Z,1.6
2023-01-28T08:53:51.854Z,1.6
2023-01-28T08:54:52.752Z,1.7
2023-01-28T08:55:53.604Z,1.7
2023-01-28T08:56:54.254Z,1.7
2023-01-28T08:57:56.905Z,1.7
2023-01-28T08:58:59.623Z,1.7
2023-01-28T09:00:00.229Z,1.8
2023-01-28T09:01:00.849Z,1.8
2023-01-28T09:02:01.488Z,1.8
2023-01-28T09:03:05.500Z,1.8
2023-01-28T09:04:07.694Z,1.8
2023-01-28T09:05:09.395Z,1.9
2023-01-28T09:06:10.263Z,1.9
2023-01-28T09:07:11.198Z,1.9
2023-01-28T09:08:12.310Z,1.9
2023-01-28T09:09:13.295Z,1.9
2023-01-28T09:10:14.887Z,1.9
2023-01-28T09:11:17.505Z,1.9
2023-01-28T09:12:18.648Z,1.9
2023-01-28T09:13:19.781Z,1.9
2023-01-28T09:14:20.389Z,1.9
2023-01-28T09:15:21.532Z,1.9
2023-01-28T09:16:22.173Z,1.9
2023-01-28T09:17:23.686Z,1.9
2023-01-28T09:18:24.819Z,1.9
2023-01-28T09:19:25.954Z,1.9
2023-01-28T09:20:27.093Z,1.9
2023-01-28T09:21:28.232Z,1.9
2023-01-28T09:22:29.309Z,1.9
2023-01-28T09:23:30.265Z,1.9
2023-01-28T09:24:31.050Z,1.9
2023-01-28T09:25:32.159Z,1.9
2023-01-28T09:26:33.333Z,1.9
2023-01-28T09:27:34.529Z,1.9
2023-01-28T09:28:35.369Z,1.9
2023-01-28T09:29:36.292Z,1.9
2023-01-28T09:30:38.050Z,1.9
2023-01-28T09:31:39.831Z,1.9
2023-01-28T09:32:40.827Z,1.9
2023-01-28T09:33:42.240Z,1.9
2023-01-28T09:34:43.149Z,1.9
2023-01-28T09:35:44.020Z,1.9
2023-01-28T09:36:45.187Z,2
2023-01-28T09:37:46.343Z,2
2023-01-28T09:38:47.292Z,2
2023-01-28T09:39:48.160Z,2
2023-01-28T09:40:49.553Z,2.1
2023-01-28T09:41:50.992Z,2.1
2023-01-28T09:42:51.975Z,2.1
2023-01-28T09:43:52.795Z,2.1
2023-01-28T09:44:53.930Z,2.1
2023-01-28T09:45:55.106Z,2.1
2023-01-28T09:46:56.066Z,2.1
2023-01-28T09:47:57.203Z,2.1
2023-01-28T09:48:58.380Z,2.1
2023-01-28T09:49:59.787Z,2.1
2023-01-28T09:51:00.659Z,2.1
2023-01-28T09:52:01.922Z,2.1
2023-01-28T09:53:03.183Z,2.1
2023-01-28T09:54:04.624Z,2.1
2023-01-28T09:55:05.870Z,2.1
2023-01-28T09:56:07.425Z,2.1
2023-01-28T09:57:08.607Z,2.1
2023-01-28T09:58:09.775Z,2.2
2023-01-28T09:59:10.707Z,2.2
2023-01-28T10:00:12.416Z,2.2
2023-01-28T10:01:16.750Z,2.2
2023-01-28T10:02:18.013Z,2.2
2023-01-28T10:03:19.188Z,2.2
2023-01-28T10:04:20.016Z,2.2
2023-01-28T10:05:20.865Z,2.2
2023-01-28T10:06:22.045Z,2.2
2023-01-28T10:07:23.463Z,2.2
2023-01-28T10:08:24.370Z,2.2
2023-01-28T10:09:25.464Z,2.2
2023-01-28T10:10:26.674Z,2.2
2023-01-28T10:11:27.564Z,2.2
2023-01-28T10:12:28.188Z,2.2
2023-01-28T10:13:29.466Z,2.1
2023-01-28T10:14:30.573Z,2.1
2023-01-28T10:15:31.769Z,2.2
2023-01-28T10:16:32.725Z,2.2
2023-01-28T10:17:33.897Z,2.2
2023-01-28T10:18:35.094Z,2.2
2023-01-28T10:19:36.268Z,2.2
2023-01-28T10:20:37.130Z,2.2
2023-01-28T10:21:38.040Z,2.2
2023-01-28T10:22:39.209Z,2.2
2023-01-28T10:23:40.385Z,2.2
2023-01-28T10:24:41.766Z,2.2
2023-01-28T10:25:42.412Z,2.2
2023-01-28T10:26:43.305Z,2.2
2023-01-28T10:27:43.954Z,2.3
2023-01-28T10:28:44.821Z,2.3
2023-01-28T10:29:45.805Z,2.3
2023-01-28T10:30:46.504Z,2.3
2023-01-28T10:31:47.870Z,2.3
2023-01-28T10:32:48.774Z,2.4
2023-01-28T10:33:50.158Z,2.4
2023-01-28T10:34:51.079Z,2.4
2023-01-28T10:35:51.937Z,2.4
2023-01-28T10:36:52.829Z,2.5
2023-01-28T10:37:54.026Z,2.5
2023-01-28T10:38:54.877Z,2.5
2023-01-28T10:39:55.483Z,2.5
2023-01-28T10:40:56.609Z,2.5
2023-01-28T10:41:58.813Z,2.5
2023-01-28T10:43:00.215Z,2.5
2023-01-28T10:44:01.084Z,2.5
2023-01-28T10:45:02.009Z,2.6
2023-01-28T10:46:03.163Z,2.6
2023-01-28T10:47:04.145Z,2.6
2023-01-28T10:48:05.081Z,2.6
2023-01-28T10:49:05.934Z,2.6
2023-01-28T10:50:06.826Z,2.6
2023-01-28T10:51:07.680Z,2.6
2023-01-28T10:52:08.304Z,2.6
2023-01-28T10:53:09.455Z,2.6
2023-01-28T10:54:10.323Z,2.6
2023-01-28T10:55:11.715Z,2.6
2023-01-28T10:56:12.858Z,2.6
2023-01-28T10:57:13.767Z,2.7
2023-01-28T10:58:14.684Z,2.7
2023-01-28T10:59:15.550Z,2.7
2023-01-28T11:00:16.872Z,2.7
2023-01-28T11:01:18.516Z,2.7
2023-01-28T11:02:19.973Z,2.7
2023-01-28T11:03:21.642Z,2.8
2023-01-28T11:04:22.478Z,2.8
2023-01-28T11:05:23.626Z,2.8
2023-01-28T11:06:24.227Z,2.8
2023-01-28T11:07:25.410Z,2.8
2023-01-28T11:08:26.834Z,2.8
2023-01-28T11:09:27.979Z,2.8
2023-01-28T11:10:29.118Z,2.8
2023-01-28T11:11:30.015Z,2.8
2023-01-28T11:12:31.472Z,2.8
2023-01-28T11:13:32.370Z,2.8
2023-01-28T11:14:33.492Z,2.8
2023-01-28T11:15:34.397Z,2.8
2023-01-28T11:16:35.295Z,2.8
2023-01-28T11:17:36.457Z,2.9
2023-01-28T11:18:37.378Z,2.9
2023-01-28T11:19:38.399Z,2.9
2023-01-28T11:20:39.299Z,2.9
2023-01-28T11:21:40.166Z,2.9
2023-01-28T11:22:41.041Z,2.9
2023-01-28T11:23:41.995Z,3
2023-01-28T11:24:42.994Z,3
2023-01-28T11:25:44.177Z,3
2023-01-28T11:26:45.323Z,3
2023-01-28T11:27:46.219Z,3
2023-01-28T11:28:46.857Z,3
2023-01-28T11:29:48.250Z,3
2023-01-28T11:30:49.469Z,3
2023-01-28T11:31:50.689Z,3
2023-01-28T11:32:51.995Z,3
2023-01-28T11:33:52.906Z,3
2023-01-28T11:34:53.559Z,3
2023-01-28T11:35:54.965Z,3
2023-01-28T11:36:55.584Z,3
2023-01-28T11:37:56.490Z,3
2023-01-28T11:38:57.650Z,3
2023-01-28T11:39:58.555Z,3
2023-01-28T11:40:59.463Z,3
2023-01-28T11:42:00.369Z,3
2023-01-28T11:43:01.261Z,3
2023-01-28T11:44:02.130Z,3
2023-01-28T11:45:04.292Z,3
2023-01-28T11:46:05.650Z,3
2023-01-28T11:47:06.732Z,3
2023-01-28T11:48:07.744Z,3
2023-01-28T11:49:08.650Z,3
2023-01-28T11:50:09.779Z,2.9
2023-01-28T11:51:10.905Z,2.9
2023-01-28T11:52:11.930Z,2.9
2023-01-28T11:53:13.760Z,2.9
2023-01-28T11:54:17.889Z,2.9
2023-01-28T11:55:18.534Z,2.9
2023-01-28T11:56:19.904Z,2.9
2023-01-28T11:57:20.776Z,2.9
2023-01-28T11:58:21.637Z,2.9
2023-01-28T11:59:22.525Z,2.9
2023-01-28T12:00:23.927Z,2.9
2023-01-28T12:01:25.104Z,2.8
2023-01-28T12:02:25.971Z,2.8
2023-01-28T12:03:26.913Z,2.8
2023-01-28T12:04:27.843Z,2.8
2023-01-28T12:05:28.721Z,2.7
2023-01-28T12:06:29.905Z,2.7
2023-01-28T12:07:30.806Z,2.7
2023-01-28T12:08:31.681Z,2.7
2023-01-28T12:09:32.299Z,2.7
2023-01-28T12:10:33.168Z,2.6
2023-01-28T12:11:34.000Z,2.6
2023-01-28T12:12:35.206Z,2.6
2023-01-28T12:13:36.334Z,2.6
2023-01-28T12:14:37.244Z,2.6
2023-01-28T12:16:45.867Z,2.6
2023-01-28T12:17:47.296Z,2.6
2023-01-28T12:18:48.154Z,2.6
2023-01-28T12:19:49.582Z,2.6
2023-01-28T12:20:51.005Z,2.6
2023-01-28T12:21:52.490Z,2.6
2023-01-28T12:22:53.370Z,2.6
2023-01-28T12:23:54.533Z,2.6
2023-01-28T12:24:56.227Z,2.6
2023-01-28T12:25:57.346Z,2.6
2023-01-28T12:26:58.735Z,2.6
2023-01-28T12:27:59.869Z,2.6
2023-01-28T12:29:01.011Z,2.6
2023-01-28T12:30:02.462Z,2.6
2023-01-28T12:31:03.759Z,2.6
2023-01-28T12:32:05.435Z,2.6
2023-01-28T12:33:07.162Z,2.7
2023-01-28T12:34:08.061Z,2.7
2023-01-28T12:35:09.629Z,2.7
2023-01-28T12:36:11.039Z,2.7
2023-01-28T12:37:11.959Z,2.7
2023-01-28T12:38:12.861Z,2.7
2023-01-28T12:39:13.719Z,2.7
2023-01-28T12:40:15.303Z,2.8
2023-01-28T12:41:17.995Z,2.7
2023-01-28T12:42:19.132Z,2.8
2023-01-28T12:43:20.341Z,2.8
2023-01-28T12:44:21.528Z,2.8
2023-01-28T12:45:22.940Z,2.8
2023-01-28T12:46:24.496Z,2.8
2023-01-28T12:47:25.626Z,2.8
2023-01-28T12:48:26.840Z,2.8
2023-01-28T12:49:27.977Z,2.8
2023-01-28T12:50:29.424Z,2.8
2023-01-28T12:51:30.818Z,2.8
2023-01-28T12:52:32.225Z,2.8
2023-01-28T12:53:33.643Z,2.8
2023-01-28T12:54:34.778Z,2.8
2023-01-28T12:55:35.648Z,2.8
2023-01-28T12:56:36.516Z,2.8
2023-01-28T12:57:37.679Z,2.8
2023-01-28T12:58:38.881Z,2.8
2023-01-28T12:59:39.764Z,2.8
2023-01-28T13:00:41.192Z,2.8
2023-01-28T13:01:42.101Z,2.8
2023-01-28T13:02:43.467Z,2.8
2023-01-28T13:03:44.769Z,2.8
2023-01-28T13:04:45.887Z,2.8
2023-01-28T13:05:47.315Z,2.8
2023-01-28T13:06:48.491Z,2.9
2023-01-28T13:07:49.902Z,2.9
2023-01-28T13:08:51.039Z,2.9
2023-01-28T13:09:51.942Z,2.9
2023-01-28T13:10:53.405Z,2.9
2023-01-28T13:11:54.804Z,2.9
2023-01-28T13:12:55.919Z,2.9
2023-01-28T13:13:57.120Z,2.9
2023-01-28T13:14:58.252Z,2.9
2023-01-28T13:15:59.910Z,2.9
2023-01-28T13:17:01.270Z,2.9
2023-01-28T13:18:02.607Z,2.9
2023-01-28T13:19:04.018Z,2.9
2023-01-28T13:20:05.156Z,2.9
2023-01-28T13:21:05.794Z,2.9
2023-01-28T13:22:06.692Z,3
2023-01-28T13:23:08.102Z,3
2023-01-28T13:24:09.364Z,3
2023-01-28T13:25:10.933Z,3
2023-01-28T13:26:12.620Z,3
2023-01-28T13:27:13.792Z,3
2023-01-28T13:28:14.826Z,3
2023-01-28T13:29:16.266Z,3.1
2023-01-28T13:30:17.463Z,3.1
2023-01-28T13:31:18.602Z,3.1
2023-01-28T13:32:20.028Z,3.1
2023-01-28T13:33:21.605Z,3.1
2023-01-28T13:34:22.743Z,3.1
2023-01-28T13:35:23.880Z,3.1
2023-01-28T13:36:25.044Z,3.1
2023-01-28T13:37:26.428Z,3.1
2023-01-28T13:38:27.600Z,3.1
2023-01-28T13:39:28.743Z,3
2023-01-28T13:40:29.886Z,3
2023-01-28T13:41:30.792Z,3
2023-01-28T13:42:31.940Z,3
2023-01-28T13:43:33.328Z,3
2023-01-28T13:44:34.536Z,3
2023-01-28T13:45:35.999Z,2.9
2023-01-28T13:46:37.418Z,3
2023-01-28T13:47:38.625Z,2.9
2023-01-28T13:48:39.739Z,2.9
2023-01-28T13:49:40.879Z,2.9
2023-01-28T13:50:42.172Z,2.9
2023-01-28T13:51:43.353Z,2.9
2023-01-28T13:52:44.812Z,2.9
2023-01-28T13:53:46.193Z,2.9
2023-01-28T13:54:47.325Z,2.9
2023-01-28T13:55:48.649Z,2.9
2023-01-28T13:56:49.620Z,2.9
2023-01-28T13:57:51.039Z,2.9
2023-01-28T13:58:52.750Z,2.9
2023-01-28T13:59:53.891Z,2.9
2023-01-28T14:00:55.069Z,2.9
2023-01-28T14:01:56.507Z,2.9
2023-01-28T14:02:57.381Z,2.9
2023-01-28T14:03:58.518Z,2.9
2023-01-28T14:04:59.700Z,2.9
2023-01-28T14:06:00.529Z,3
2023-01-28T14:07:01.956Z,3
2023-01-28T14:08:03.471Z,3
2023-01-28T14:09:04.878Z,3.1